28  °C
Temperature
17  °C
  Dewpoint
   Humidity
Temp | Dewpoint | Humidity
19  km/h
Wind Speed
12  mph
Wind Speed
10  kts
Wind Speed
170°
Due South

Wind Speed
Partly Cloudy
Conditions
Pressure 1014.92 (hPa) - 29.97 (in)
Visibility 6.2 (mi) - 10.0 (km)

Current Conditions
LGTS
Location 6km (3.2mi)
Metar :LGTS 161420Z 17010KT 9999 FEW030 28/17 Q1015 NOSIG
Mon 16th September 16:20 pm

Airport
  Metar Aviation API Data Provided by https://www.checkwx.com/ CSS/SVG/PHP scripts by weather34.com © 2015-2019